Terminal Aerodrome Forecast
Issued by NWS Charleston, WV

Current Version | Previous Version | Text Only | Print | Product List | Glossary Off
Versions: 1 2 3 4 5 6 7 8 9 10 11 12 13 14 15 16 17 18 19 20 21 22 23

000
FTUS41 KRLX 281400 AAA
TAFBKW
TAF AMD
KBKW 281428Z 2814/2912 23011KT P6SM SCT040 SCT250
     FM281600 22010G16KT P6SM BKN040
     FM282200 22006KT 6SM BR VCTS BKN040CB
     FM290100 24006KT 3SM -SHRA BR VCTS BKN025CB=

USA.gov is the U.S. government's official web portal to all federal, state and local government web resources and services.